Alfred Station, New York
Current Conditions -  °F | °C
As of 12:23 AM on Wednesday 22 Oct 2014 (Local Time) from KELZ Reporting Station
Moderate Fog Moderate Fog  
Wind Chill: 40°   Ceiling: 100
Heat Index: 44°   Visibility: 0.25mi
Dew Point: 42°   Wind: 7mph
Humidity: 93%   Direction: 340°NNW
Pressure: 30.03"   Gusts: NA
Location:  42.27°N, 77.76°W
Report Text: KELZ 220423Z AUTO 34006KT 1/4SM FG VV001 07/06 A3003 RMK AO2 T00670056
Loading
Personal Weather Stations






























Interactive Weather Map
Tropical Storm Tracking
New forecast layout! Learn more

10-Day Weather Forecast

Advertisements
Track Severe Weather on mobile